<?xml version="1.0" encoding="UTF-8" standalone="no" ?>
<gpx xmlns="http://www.topografix.com/GPX/1/1" xmlns:xsi="http://www.w3.org/2001/XMLSchema-instance" xsi:schemaLocation="http://www.topografix.com/GPX/1/1 http://www.topografix.com/GPX/1/1/gpx.xsd" version="1.1" creator="VisuGPX - https://www.visugpx.com">
  <metadata>
    <name>En Forêt de Rambouillet à partir des Étangs de Hollande</name>
  </metadata>
  <wpt lat="48.72955" lon="1.80304">
    <ele>178</ele>
    <name><![CDATA[Carrefour de Judith]]></name>
  </wpt>
  <wpt lat="48.73507" lon="1.79393">
    <ele>192</ele>
    <name><![CDATA[Carrefour du Poteau de Hollande.]]></name>
  </wpt>
  <wpt lat="48.73892" lon="1.8033">
    <ele>191</ele>
    <name><![CDATA[Carrefour]]></name>
  </wpt>
  <wpt lat="48.7399" lon="1.81818">
    <ele>195</ele>
    <name><![CDATA[Route Goron]]></name>
  </wpt>
  <wpt lat="48.73776" lon="1.82338">
    <ele>192</ele>
    <name><![CDATA[Départ de chemin sur la droite]]></name>
  </wpt>
  <wpt lat="48.73585" lon="1.80891">
    <ele>192</ele>
    <name><![CDATA[Carrefour de la Rotonde]]></name>
  </wpt>
  <wpt lat="48.73577" lon="1.80862">
    <ele>192</ele>
    <name><![CDATA[Carrefour de la Rotonde]]></name>
  </wpt>
  <wpt lat="48.72674" lon="1.81057">
    <ele>182</ele>
    <name><![CDATA[Carrefour de Bourgneuf]]></name>
  </wpt>
  <wpt lat="48.72955" lon="1.80303">
    <ele>178</ele>
    <name><![CDATA[Carrefour de Judith]]></name>
  </wpt>
  <trk>
    <name><![CDATA[En Forêt de Rambouillet à partir des Étangs de Hollande]]></name>
    <trkseg>
      <trkpt lat="48.72955" lon="1.80304">
        <ele>178</ele>
        <time>2018-09-25T15:30:38+02:00</time>
      </trkpt>
      <trkpt lat="48.72977" lon="1.80293">
        <ele>178</ele>
        <time>2018-09-25T15:31:08+02:00</time>
      </trkpt>
      <trkpt lat="48.73006" lon="1.80241">
        <ele>178</ele>
        <time>2018-09-25T15:32:00+02:00</time>
      </trkpt>
      <trkpt lat="48.73014" lon="1.80174">
        <ele>179</ele>
        <time>2018-09-25T15:32:46+02:00</time>
      </trkpt>
      <trkpt lat="48.73039" lon="1.80117">
        <ele>179</ele>
        <time>2018-09-25T15:33:24+02:00</time>
      </trkpt>
      <trkpt lat="48.73066" lon="1.80061">
        <ele>179</ele>
        <time>2018-09-25T15:34:08+02:00</time>
      </trkpt>
      <trkpt lat="48.73093" lon="1.80006">
        <ele>181</ele>
        <time>2018-09-25T15:34:52+02:00</time>
      </trkpt>
      <trkpt lat="48.73114" lon="1.79945">
        <ele>182</ele>
        <time>2018-09-25T15:35:36+02:00</time>
      </trkpt>
      <trkpt lat="48.73136" lon="1.79885">
        <ele>182</ele>
        <time>2018-09-25T15:36:14+02:00</time>
      </trkpt>
      <trkpt lat="48.73165" lon="1.79829">
        <ele>183</ele>
        <time>2018-09-25T15:36:51+02:00</time>
      </trkpt>
      <trkpt lat="48.73188" lon="1.7977">
        <ele>182</ele>
        <time>2018-09-25T15:37:30+02:00</time>
      </trkpt>
      <trkpt lat="48.73187" lon="1.79734">
        <ele>181</ele>
        <time>2018-09-25T15:37:51+02:00</time>
      </trkpt>
      <trkpt lat="48.732" lon="1.79667">
        <ele>179</ele>
        <time>2018-09-25T15:38:30+02:00</time>
      </trkpt>
      <trkpt lat="48.73215" lon="1.79601">
        <ele>179</ele>
        <time>2018-09-25T15:39:10+02:00</time>
      </trkpt>
      <trkpt lat="48.73239" lon="1.79542">
        <ele>180</ele>
        <time>2018-09-25T15:39:50+02:00</time>
      </trkpt>
      <trkpt lat="48.73252" lon="1.79513">
        <ele>181</ele>
        <time>2018-09-25T15:40:09+02:00</time>
      </trkpt>
      <trkpt lat="48.73287" lon="1.79467">
        <ele>184</ele>
        <time>2018-09-25T15:41:18+02:00</time>
      </trkpt>
      <trkpt lat="48.73322" lon="1.79422">
        <ele>186</ele>
        <time>2018-09-25T15:42:26+02:00</time>
      </trkpt>
      <trkpt lat="48.73368" lon="1.79412">
        <ele>189</ele>
        <time>2018-09-25T15:43:23+02:00</time>
      </trkpt>
      <trkpt lat="48.73413" lon="1.79402">
        <ele>191</ele>
        <time>2018-09-25T15:44:10+02:00</time>
      </trkpt>
      <trkpt lat="48.7346" lon="1.79394">
        <ele>192</ele>
        <time>2018-09-25T15:44:51+02:00</time>
      </trkpt>
      <trkpt lat="48.73507" lon="1.79393">
        <ele>192</ele>
        <time>2018-09-25T15:45:26+02:00</time>
      </trkpt>
      <trkpt lat="48.73523" lon="1.79416">
        <ele>193</ele>
        <time>2018-09-25T15:45:43+02:00</time>
      </trkpt>
      <trkpt lat="48.73548" lon="1.79475">
        <ele>192</ele>
        <time>2018-09-25T15:46:50+02:00</time>
      </trkpt>
      <trkpt lat="48.73584" lon="1.79603">
        <ele>191</ele>
        <time>2018-09-25T15:47:57+02:00</time>
      </trkpt>
      <trkpt lat="48.7363" lon="1.79727">
        <ele>189</ele>
        <time>2018-09-25T15:49:10+02:00</time>
      </trkpt>
      <trkpt lat="48.73681" lon="1.79839">
        <ele>188</ele>
        <time>2018-09-25T15:50:23+02:00</time>
      </trkpt>
      <trkpt lat="48.737" lon="1.79891">
        <ele>189</ele>
        <time>2021-03-16T14:07:13+01:00</time>
      </trkpt>
      <trkpt lat="48.73726" lon="1.79922">
        <ele>188</ele>
        <time>2018-09-25T15:51:16+02:00</time>
      </trkpt>
      <trkpt lat="48.73786" lon="1.80025">
        <ele>188</ele>
        <time>2018-09-25T15:52:29+02:00</time>
      </trkpt>
      <trkpt lat="48.73837" lon="1.80121">
        <ele>190</ele>
        <time>2018-09-25T15:53:56+02:00</time>
      </trkpt>
      <trkpt lat="48.73861" lon="1.80161">
        <ele>191</ele>
        <time>2018-09-25T15:54:19+02:00</time>
      </trkpt>
      <trkpt lat="48.73881" lon="1.80267">
        <ele>190</ele>
        <time>2018-09-25T15:55:10+02:00</time>
      </trkpt>
      <trkpt lat="48.73892" lon="1.8033">
        <ele>191</ele>
        <time>2018-09-25T15:56:18+02:00</time>
      </trkpt>
      <trkpt lat="48.73897" lon="1.80398">
        <ele>191</ele>
        <time>2018-09-25T15:57:48+02:00</time>
      </trkpt>
      <trkpt lat="48.73914" lon="1.8046">
        <ele>191</ele>
        <time>2018-09-25T15:58:31+02:00</time>
      </trkpt>
      <trkpt lat="48.73921" lon="1.80524">
        <ele>192</ele>
        <time>2021-03-16T14:07:58+01:00</time>
      </trkpt>
      <trkpt lat="48.73919" lon="1.80591">
        <ele>192</ele>
        <time>2018-09-25T15:59:51+02:00</time>
      </trkpt>
      <trkpt lat="48.7391" lon="1.8066">
        <ele>193</ele>
        <time>2018-09-25T16:00:29+02:00</time>
      </trkpt>
      <trkpt lat="48.7388" lon="1.80798">
        <ele>195</ele>
        <time>2018-09-25T16:01:48+02:00</time>
      </trkpt>
      <trkpt lat="48.73877" lon="1.80848">
        <ele>196</ele>
        <time>2021-03-16T14:08:18+01:00</time>
      </trkpt>
      <trkpt lat="48.73871" lon="1.80899">
        <ele>196</ele>
        <time>2018-09-25T16:03:26+02:00</time>
      </trkpt>
      <trkpt lat="48.73866" lon="1.80974">
        <ele>196</ele>
        <time>2018-09-25T16:04:10+02:00</time>
      </trkpt>
      <trkpt lat="48.73871" lon="1.81042">
        <ele>196</ele>
        <time>2018-09-25T16:04:53+02:00</time>
      </trkpt>
      <trkpt lat="48.73884" lon="1.81138">
        <ele>195</ele>
        <time>2018-09-25T16:05:50+02:00</time>
      </trkpt>
      <trkpt lat="48.73896" lon="1.81174">
        <ele>195</ele>
        <time>2018-09-25T16:06:38+02:00</time>
      </trkpt>
      <trkpt lat="48.73905" lon="1.81244">
        <ele>195</ele>
        <time>2018-09-25T16:07:25+02:00</time>
      </trkpt>
      <trkpt lat="48.73921" lon="1.81309">
        <ele>194</ele>
        <time>2018-09-25T16:08:03+02:00</time>
      </trkpt>
      <trkpt lat="48.73935" lon="1.81373">
        <ele>193</ele>
        <time>2018-09-25T16:08:46+02:00</time>
      </trkpt>
      <trkpt lat="48.73936" lon="1.81412">
        <ele>192</ele>
        <time>2018-09-25T16:09:04+02:00</time>
      </trkpt>
      <trkpt lat="48.73933" lon="1.81458">
        <ele>193</ele>
        <time>2018-09-25T16:09:27+02:00</time>
      </trkpt>
      <trkpt lat="48.73951" lon="1.81508">
        <ele>195</ele>
        <time>2018-09-25T16:11:09+02:00</time>
      </trkpt>
      <trkpt lat="48.73966" lon="1.81605">
        <ele>197</ele>
        <time>2018-09-25T16:12:30+02:00</time>
      </trkpt>
      <trkpt lat="48.73968" lon="1.8168">
        <ele>198</ele>
        <time>2018-09-25T16:21:52+02:00</time>
      </trkpt>
      <trkpt lat="48.73981" lon="1.81759">
        <ele>196</ele>
        <time>2018-09-25T16:23:06+02:00</time>
      </trkpt>
      <trkpt lat="48.7399" lon="1.81818">
        <ele>195</ele>
        <time>2018-09-25T16:23:40+02:00</time>
      </trkpt>
      <trkpt lat="48.73979" lon="1.81865">
        <ele>194</ele>
        <time>2018-09-25T16:25:08+02:00</time>
      </trkpt>
      <trkpt lat="48.73951" lon="1.81924">
        <ele>194</ele>
        <time>2018-09-25T16:25:47+02:00</time>
      </trkpt>
      <trkpt lat="48.73929" lon="1.81981">
        <ele>195</ele>
        <time>2018-09-25T16:26:24+02:00</time>
      </trkpt>
      <trkpt lat="48.73904" lon="1.82038">
        <ele>195</ele>
        <time>2018-09-25T16:27:06+02:00</time>
      </trkpt>
      <trkpt lat="48.73878" lon="1.82098">
        <ele>195</ele>
        <time>2018-09-25T16:27:36+02:00</time>
      </trkpt>
      <trkpt lat="48.73853" lon="1.82158">
        <ele>195</ele>
        <time>2018-09-25T16:28:11+02:00</time>
      </trkpt>
      <trkpt lat="48.73829" lon="1.82212">
        <ele>195</ele>
        <time>2018-09-25T16:28:49+02:00</time>
      </trkpt>
      <trkpt lat="48.73805" lon="1.82273">
        <ele>195</ele>
        <time>2018-09-25T16:29:20+02:00</time>
      </trkpt>
      <trkpt lat="48.73776" lon="1.82338">
        <ele>192</ele>
        <time>2018-09-25T16:29:53+02:00</time>
      </trkpt>
      <trkpt lat="48.73739" lon="1.82303">
        <ele>193</ele>
        <time>2018-09-25T16:31:08+02:00</time>
      </trkpt>
      <trkpt lat="48.73702" lon="1.82264">
        <ele>194</ele>
        <time>2018-09-25T16:31:46+02:00</time>
      </trkpt>
      <trkpt lat="48.73661" lon="1.82219">
        <ele>192</ele>
        <time>2018-09-25T16:32:31+02:00</time>
      </trkpt>
      <trkpt lat="48.73658" lon="1.8215">
        <ele>192</ele>
        <time>2018-09-25T16:33:07+02:00</time>
      </trkpt>
      <trkpt lat="48.73654" lon="1.8208">
        <ele>192</ele>
        <time>2018-09-25T16:33:44+02:00</time>
      </trkpt>
      <trkpt lat="48.73651" lon="1.82011">
        <ele>194</ele>
        <time>2018-09-25T16:34:25+02:00</time>
      </trkpt>
      <trkpt lat="48.73648" lon="1.81939">
        <ele>194</ele>
        <time>2018-09-25T16:34:59+02:00</time>
      </trkpt>
      <trkpt lat="48.73642" lon="1.8187">
        <ele>194</ele>
        <time>2018-09-25T16:35:36+02:00</time>
      </trkpt>
      <trkpt lat="48.73638" lon="1.81802">
        <ele>194</ele>
        <time>2018-09-25T16:36:11+02:00</time>
      </trkpt>
      <trkpt lat="48.73633" lon="1.81732">
        <ele>195</ele>
        <time>2018-09-25T16:36:46+02:00</time>
      </trkpt>
      <trkpt lat="48.7363" lon="1.81662">
        <ele>194</ele>
        <time>2018-09-25T16:38:17+02:00</time>
      </trkpt>
      <trkpt lat="48.73624" lon="1.81592">
        <ele>192</ele>
        <time>2018-09-25T16:38:55+02:00</time>
      </trkpt>
      <trkpt lat="48.73621" lon="1.81521">
        <ele>192</ele>
        <time>2018-09-25T16:39:33+02:00</time>
      </trkpt>
      <trkpt lat="48.73614" lon="1.81451">
        <ele>192</ele>
        <time>2018-09-25T16:40:26+02:00</time>
      </trkpt>
      <trkpt lat="48.73612" lon="1.81381">
        <ele>192</ele>
        <time>2018-09-25T16:41:04+02:00</time>
      </trkpt>
      <trkpt lat="48.73606" lon="1.81313">
        <ele>192</ele>
        <time>2018-09-25T16:41:44+02:00</time>
      </trkpt>
      <trkpt lat="48.73605" lon="1.81243">
        <ele>192</ele>
        <time>2018-09-25T16:42:34+02:00</time>
      </trkpt>
      <trkpt lat="48.73601" lon="1.81174">
        <ele>193</ele>
        <time>2018-09-25T16:43:24+02:00</time>
      </trkpt>
      <trkpt lat="48.73596" lon="1.81105">
        <ele>194</ele>
        <time>2018-09-25T16:44:02+02:00</time>
      </trkpt>
      <trkpt lat="48.73593" lon="1.81036">
        <ele>194</ele>
        <time>2018-09-25T16:44:51+02:00</time>
      </trkpt>
      <trkpt lat="48.73588" lon="1.80966">
        <ele>193</ele>
        <time>2018-09-25T16:45:56+02:00</time>
      </trkpt>
      <trkpt lat="48.73585" lon="1.80891">
        <ele>192</ele>
        <time>2018-09-25T16:46:45+02:00</time>
      </trkpt>
      <trkpt lat="48.73577" lon="1.80862">
        <ele>192</ele>
        <time>2018-09-25T16:47:14+02:00</time>
      </trkpt>
      <trkpt lat="48.73531" lon="1.80864">
        <ele>194</ele>
        <time>2018-09-25T16:49:40+02:00</time>
      </trkpt>
      <trkpt lat="48.7344" lon="1.80873">
        <ele>195</ele>
        <time>2018-09-25T16:51:12+02:00</time>
      </trkpt>
      <trkpt lat="48.73343" lon="1.80895">
        <ele>194</ele>
        <time>2018-09-25T16:52:25+02:00</time>
      </trkpt>
      <trkpt lat="48.73247" lon="1.80909">
        <ele>193</ele>
        <time>2018-09-25T16:53:49+02:00</time>
      </trkpt>
      <trkpt lat="48.73156" lon="1.8092">
        <ele>190</ele>
        <time>2018-09-25T16:55:27+02:00</time>
      </trkpt>
      <trkpt lat="48.73113" lon="1.80932">
        <ele>189</ele>
        <time>2018-09-25T16:56:14+02:00</time>
      </trkpt>
      <trkpt lat="48.73066" lon="1.80944">
        <ele>188</ele>
        <time>2018-09-25T16:56:49+02:00</time>
      </trkpt>
      <trkpt lat="48.72975" lon="1.80972">
        <ele>189</ele>
        <time>2018-09-25T16:58:33+02:00</time>
      </trkpt>
      <trkpt lat="48.72905" lon="1.80992">
        <ele>187</ele>
        <time>2018-09-25T16:59:47+02:00</time>
      </trkpt>
      <trkpt lat="48.7286" lon="1.81005">
        <ele>188</ele>
        <time>2018-09-25T17:02:18+02:00</time>
      </trkpt>
      <trkpt lat="48.72767" lon="1.81032">
        <ele>186</ele>
        <time>2018-09-25T17:03:57+02:00</time>
      </trkpt>
      <trkpt lat="48.72723" lon="1.81042">
        <ele>184</ele>
        <time>2018-09-25T17:04:40+02:00</time>
      </trkpt>
      <trkpt lat="48.72674" lon="1.81057">
        <ele>182</ele>
        <time>2018-09-25T17:05:17+02:00</time>
      </trkpt>
      <trkpt lat="48.72641" lon="1.81">
        <ele>179</ele>
        <time>2018-09-25T17:05:48+02:00</time>
      </trkpt>
      <trkpt lat="48.72612" lon="1.80949">
        <ele>176</ele>
        <time>2018-09-25T17:06:29+02:00</time>
      </trkpt>
      <trkpt lat="48.72579" lon="1.80902">
        <ele>172</ele>
        <time>2018-09-25T17:06:59+02:00</time>
      </trkpt>
      <trkpt lat="48.72547" lon="1.80849">
        <ele>172</ele>
        <time>2018-09-25T17:07:32+02:00</time>
      </trkpt>
      <trkpt lat="48.72517" lon="1.80797">
        <ele>172</ele>
        <time>2018-09-25T17:08:13+02:00</time>
      </trkpt>
      <trkpt lat="48.72462" lon="1.80711">
        <ele>176</ele>
        <time>2018-09-25T17:09:13+02:00</time>
      </trkpt>
      <trkpt lat="48.72466" lon="1.80686">
        <ele>175</ele>
        <time>2018-09-25T17:09:42+02:00</time>
      </trkpt>
      <trkpt lat="48.72487" lon="1.80626">
        <ele>175</ele>
        <time>2018-09-25T17:10:26+02:00</time>
      </trkpt>
      <trkpt lat="48.7251" lon="1.80563">
        <ele>176</ele>
        <time>2018-09-25T17:11:06+02:00</time>
      </trkpt>
      <trkpt lat="48.72534" lon="1.805">
        <ele>174</ele>
        <time>2018-09-25T17:11:43+02:00</time>
      </trkpt>
      <trkpt lat="48.72559" lon="1.80437">
        <ele>173</ele>
        <time>2018-09-25T17:12:25+02:00</time>
      </trkpt>
      <trkpt lat="48.7258" lon="1.80375">
        <ele>173</ele>
        <time>2018-09-25T17:12:59+02:00</time>
      </trkpt>
      <trkpt lat="48.72603" lon="1.80315">
        <ele>173</ele>
        <time>2018-09-25T17:13:37+02:00</time>
      </trkpt>
      <trkpt lat="48.72627" lon="1.80255">
        <ele>173</ele>
        <time>2018-09-25T17:14:16+02:00</time>
      </trkpt>
      <trkpt lat="48.72648" lon="1.80193">
        <ele>175</ele>
        <time>2018-09-25T17:14:53+02:00</time>
      </trkpt>
      <trkpt lat="48.72675" lon="1.80137">
        <ele>177</ele>
        <time>2018-09-25T17:15:26+02:00</time>
      </trkpt>
      <trkpt lat="48.72689" lon="1.80118">
        <ele>176</ele>
        <time>2018-09-25T17:15:42+02:00</time>
      </trkpt>
      <trkpt lat="48.72742" lon="1.80152">
        <ele>172</ele>
        <time>2018-09-25T17:16:18+02:00</time>
      </trkpt>
      <trkpt lat="48.72784" lon="1.80179">
        <ele>172</ele>
        <time>2018-09-25T17:16:53+02:00</time>
      </trkpt>
      <trkpt lat="48.72826" lon="1.80211">
        <ele>172</ele>
        <time>2018-09-25T17:17:33+02:00</time>
      </trkpt>
      <trkpt lat="48.72869" lon="1.80237">
        <ele>174</ele>
        <time>2018-09-25T17:19:38+02:00</time>
      </trkpt>
      <trkpt lat="48.72912" lon="1.80272">
        <ele>177</ele>
        <time>2018-09-25T17:22:05+02:00</time>
      </trkpt>
      <trkpt lat="48.72955" lon="1.80303">
        <ele>178</ele>
        <time>2018-09-25T17:22:41+02:00</time>
      </trkpt>
    </trkseg>
  </trk>
</gpx>